sensor_id;sensor_type;location;lat;lon;timestamp;pressure;altitude;pressure_sealevel;temperature;humidity
35716;BME280;21840;44.920;8.616;2023-02-15T00:01:49;101887.03;;;8.47;46.14
35716;BME280;21840;44.920;8.616;2023-02-15T00:04:17;101879.50;;;8.40;46.50
35716;BME280;21840;44.920;8.616;2023-02-15T00:06:43;101888.88;;;7.78;47.75
35716;BME280;21840;44.920;8.616;2023-02-15T00:09:09;101886.72;;;7.86;47.10
35716;BME280;21840;44.920;8.616;2023-02-15T00:11:35;101885.34;;;7.79;47.10
35716;BME280;21840;44.920;8.616;2023-02-15T00:14:21;101888.41;;;7.87;46.80
35716;BME280;21840;44.920;8.616;2023-02-15T00:16:48;101886.66;;;7.70;46.65
35716;BME280;21840;44.920;8.616;2023-02-15T00:19:15;101891.22;;;7.32;47.49
35716;BME280;21840;44.920;8.616;2023-02-15T00:21:41;101889.72;;;7.44;47.11
35716;BME280;21840;44.920;8.616;2023-02-15T00:24:08;101890.09;;;7.19;47.66
35716;BME280;21840;44.920;8.616;2023-02-15T00:26:37;101884.13;;;7.17;47.24
35716;BME280;21840;44.920;8.616;2023-02-15T00:29:03;101889.16;;;6.85;47.24
35716;BME280;21840;44.920;8.616;2023-02-15T00:31:31;101886.25;;;7.08;47.26
35716;BME280;21840;44.920;8.616;2023-02-15T00:34:25;101883.81;;;7.75;45.89
35716;BME280;21840;44.920;8.616;2023-02-15T00:36:50;101885.66;;;7.73;45.74
35716;BME280;21840;44.920;8.616;2023-02-15T00:39:17;101882.25;;;7.71;46.01
35716;BME280;21840;44.920;8.616;2023-02-15T00:41:44;101876.44;;;7.48;45.84
35716;BME280;21840;44.920;8.616;2023-02-15T00:44:10;101879.41;;;7.06;47.58
35716;BME280;21840;44.920;8.616;2023-02-15T00:46:36;101876.75;;;7.07;47.36
35716;BME280;21840;44.920;8.616;2023-02-15T00:49:02;101872.84;;;6.80;48.18
35716;BME280;21840;44.920;8.616;2023-02-15T00:51:28;101882.25;;;7.01;47.73
35716;BME280;21840;44.920;8.616;2023-02-15T00:53:53;101877.06;;;7.36;47.31
35716;BME280;21840;44.920;8.616;2023-02-15T00:56:19;101876.06;;;7.39;47.24
35716;BME280;21840;44.920;8.616;2023-02-15T00:58:45;101880.66;;;7.16;47.87
35716;BME280;21840;44.920;8.616;2023-02-15T01:01:14;101885.97;;;7.15;48.05
35716;BME280;21840;44.920;8.616;2023-02-15T01:03:40;101879.00;;;7.32;47.24
35716;BME280;21840;44.920;8.616;2023-02-15T01:06:10;101881.13;;;7.07;47.62
35716;BME280;21840;44.920;8.616;2023-02-15T01:08:36;101881.22;;;7.40;47.38
35716;BME280;21840;44.920;8.616;2023-02-15T01:11:06;101883.59;;;7.27;47.60
35716;BME280;21840;44.920;8.616;2023-02-15T01:13:33;101880.75;;;7.32;47.42
35716;BME280;21840;44.920;8.616;2023-02-15T01:15:59;101882.00;;;7.42;46.94
35716;BME280;21840;44.920;8.616;2023-02-15T01:18:25;101881.81;;;7.45;46.74
35716;BME280;21840;44.920;8.616;2023-02-15T01:20:50;101883.28;;;7.33;47.10
35716;BME280;21840;44.920;8.616;2023-02-15T01:23:16;101881.22;;;7.40;47.06
35716;BME280;21840;44.920;8.616;2023-02-15T01:25:41;101885.19;;;7.12;47.99
35716;BME280;21840;44.920;8.616;2023-02-15T01:28:09;101882.81;;;7.08;47.73
35716;BME280;21840;44.920;8.616;2023-02-15T01:30:35;101884.66;;;7.06;47.28
35716;BME280;21840;44.920;8.616;2023-02-15T01:33:01;101878.03;;;7.16;47.30
35716;BME280;21840;44.920;8.616;2023-02-15T01:35:29;101873.44;;;6.67;48.16
35716;BME280;21840;44.920;8.616;2023-02-15T01:37:55;101870.59;;;7.26;47.18
35716;BME280;21840;44.920;8.616;2023-02-15T01:40:22;101871.75;;;7.38;46.99
35716;BME280;21840;44.920;8.616;2023-02-15T01:42:53;101868.31;;;7.54;46.68
35716;BME280;21840;44.920;8.616;2023-02-15T01:45:46;101860.69;;;7.32;47.15
35716;BME280;21840;44.920;8.616;2023-02-15T01:48:24;101865.06;;;6.97;47.62
35716;BME280;21840;44.920;8.616;2023-02-15T01:50:55;101864.59;;;7.41;47.10
35716;BME280;21840;44.920;8.616;2023-02-15T01:53:27;101867.69;;;7.32;46.85
35716;BME280;21840;44.920;8.616;2023-02-15T01:56:00;101868.38;;;7.35;46.89
35716;BME280;21840;44.920;8.616;2023-02-15T01:58:27;101866.31;;;7.42;46.65
35716;BME280;21840;44.920;8.616;2023-02-15T02:00:56;101865.38;;;7.43;46.98
35716;BME280;21840;44.920;8.616;2023-02-15T02:06:02;101859.63;;;7.19;46.70
35716;BME280;21840;44.920;8.616;2023-02-15T02:08:28;101857.09;;;7.35;46.38
35716;BME280;21840;44.920;8.616;2023-02-15T02:10:53;101855.63;;;7.29;46.34
35716;BME280;21840;44.920;8.616;2023-02-15T02:13:19;101849.09;;;7.21;46.62
35716;BME280;21840;44.920;8.616;2023-02-15T02:35:01;101856.53;;;6.19;49.12
35716;BME280;21840;44.920;8.616;2023-02-15T02:40:22;101854.69;;;6.21;48.98
35716;BME280;21840;44.920;8.616;2023-02-15T02:43:05;101845.94;;;6.22;49.19
35716;BME280;21840;44.920;8.616;2023-02-15T02:48:19;101842.78;;;6.35;48.32
35716;BME280;21840;44.920;8.616;2023-02-15T02:50:48;101847.28;;;6.31;48.60
35716;BME280;21840;44.920;8.616;2023-02-15T02:53:14;101833.81;;;6.40;48.62
35716;BME280;21840;44.920;8.616;2023-02-15T02:58:06;101838.75;;;6.09;49.61
35716;BME280;21840;44.920;8.616;2023-02-15T03:00:37;101845.22;;;6.00;48.79
35716;BME280;21840;44.920;8.616;2023-02-15T03:03:08;101842.22;;;6.09;49.18
35716;BME280;21840;44.920;8.616;2023-02-15T03:05:37;101833.34;;;5.93;49.42
35716;BME280;21840;44.920;8.616;2023-02-15T03:08:05;101836.00;;;5.72;49.32
35716;BME280;21840;44.920;8.616;2023-02-15T03:10:36;101836.66;;;5.57;49.94
35716;BME280;21840;44.920;8.616;2023-02-15T03:13:04;101829.50;;;5.62;49.94
35716;BME280;21840;44.920;8.616;2023-02-15T03:15:35;101833.25;;;5.75;49.67
35716;BME280;21840;44.920;8.616;2023-02-15T03:18:25;101825.84;;;5.46;50.35
35716;BME280;21840;44.920;8.616;2023-02-15T03:20:54;101840.25;;;5.54;49.58
35716;BME280;21840;44.920;8.616;2023-02-15T03:23:23;101832.09;;;5.41;49.71
35716;BME280;21840;44.920;8.616;2023-02-15T03:26:02;101832.56;;;5.31;49.65
35716;BME280;21840;44.920;8.616;2023-02-15T03:28:36;101831.97;;;5.45;49.00
35716;BME280;21840;44.920;8.616;2023-02-15T03:31:05;101824.22;;;5.43;49.68
35716;BME280;21840;44.920;8.616;2023-02-15T03:33:31;101820.06;;;5.59;48.69
35716;BME280;21840;44.920;8.616;2023-02-15T03:36:21;101819.28;;;5.57;49.05
35716;BME280;21840;44.920;8.616;2023-02-15T03:38:55;101821.50;;;5.86;49.13
35716;BME280;21840;44.920;8.616;2023-02-15T03:41:27;101820.25;;;5.55;49.34
35716;BME280;21840;44.920;8.616;2023-02-15T03:44:02;101816.66;;;5.57;49.01
35716;BME280;21840;44.920;8.616;2023-02-15T03:49:11;101817.16;;;5.66;49.15
35716;BME280;21840;44.920;8.616;2023-02-15T03:51:41;101817.97;;;5.47;49.11
35716;BME280;21840;44.920;8.616;2023-02-15T03:54:15;101827.56;;;5.47;49.33
35716;BME280;21840;44.920;8.616;2023-02-15T03:57:07;101827.63;;;5.45;49.23
35716;BME280;21840;44.920;8.616;2023-02-15T03:59:52;101826.63;;;5.07;49.83
35716;BME280;21840;44.920;8.616;2023-02-15T04:05:40;101828.09;;;5.74;48.86
35716;BME280;21840;44.920;8.616;2023-02-15T04:08:06;101831.34;;;5.79;48.84
35716;BME280;21840;44.920;8.616;2023-02-15T04:10:32;101823.84;;;5.71;48.67
35716;BME280;21840;44.920;8.616;2023-02-15T04:13:15;101823.53;;;5.99;48.43
35716;BME280;21840;44.920;8.616;2023-02-15T04:15:41;101823.22;;;5.87;48.23
35716;BME280;21840;44.920;8.616;2023-02-15T04:18:25;101826.09;;;5.60;48.89
35716;BME280;21840;44.920;8.616;2023-02-15T04:21:09;101827.63;;;5.45;49.52
35716;BME280;21840;44.920;8.616;2023-02-15T04:23:53;101831.34;;;5.39;49.75
35716;BME280;21840;44.920;8.616;2023-02-15T04:26:37;101829.09;;;5.30;50.14
35716;BME280;21840;44.920;8.616;2023-02-15T04:29:02;101832.75;;;5.26;49.46
35716;BME280;21840;44.920;8.616;2023-02-15T04:31:27;101820.66;;;5.25;50.17
35716;BME280;21840;44.920;8.616;2023-02-15T04:33:53;101833.41;;;5.31;49.68
35716;BME280;21840;44.920;8.616;2023-02-15T04:36:18;101838.69;;;5.30;49.53
35716;BME280;21840;44.920;8.616;2023-02-15T04:38:43;101830.28;;;5.44;49.70
35716;BME280;21840;44.920;8.616;2023-02-15T04:41:09;101826.19;;;5.38;49.36
35716;BME280;21840;44.920;8.616;2023-02-15T04:43:36;101830.13;;;5.26;50.36
35716;BME280;21840;44.920;8.616;2023-02-15T04:46:01;101823.56;;;4.75;51.31
35716;BME280;21840;44.920;8.616;2023-02-15T04:48:27;101823.06;;;4.87;50.61
35716;BME280;21840;44.920;8.616;2023-02-15T04:50:52;101823.06;;;5.09;50.22
35716;BME280;21840;44.920;8.616;2023-02-15T04:53:18;101814.97;;;5.15;49.91
35716;BME280;21840;44.920;8.616;2023-02-15T04:55:43;101815.94;;;5.13;49.88
35716;BME280;21840;44.920;8.616;2023-02-15T04:58:09;101818.09;;;4.81;50.55
35716;BME280;21840;44.920;8.616;2023-02-15T05:00:34;101825.19;;;5.00;50.02
35716;BME280;21840;44.920;8.616;2023-02-15T05:02:59;101823.25;;;5.05;50.10
35716;BME280;21840;44.920;8.616;2023-02-15T05:05:25;101822.78;;;4.95;49.85
35716;BME280;21840;44.920;8.616;2023-02-15T05:07:50;101819.66;;;4.65;50.14
35716;BME280;21840;44.920;8.616;2023-02-15T05:10:16;101819.75;;;4.62;50.74
35716;BME280;21840;44.920;8.616;2023-02-15T05:12:41;101817.84;;;4.67;50.54
35716;BME280;21840;44.920;8.616;2023-02-15T05:15:07;101819.03;;;4.58;50.30
35716;BME280;21840;44.920;8.616;2023-02-15T05:17:32;101823.88;;;4.89;49.64
35716;BME280;21840;44.920;8.616;2023-02-15T05:19:58;101829.88;;;4.69;50.15
35716;BME280;21840;44.920;8.616;2023-02-15T05:22:24;101823.69;;;4.72;50.02
35716;BME280;21840;44.920;8.616;2023-02-15T05:24:49;101824.94;;;4.62;50.23
35716;BME280;21840;44.920;8.616;2023-02-15T05:27:33;101828.81;;;4.73;50.88
35716;BME280;21840;44.920;8.616;2023-02-15T05:30:17;101828.41;;;4.84;50.42
35716;BME280;21840;44.920;8.616;2023-02-15T05:32:43;101831.59;;;4.91;50.35
35716;BME280;21840;44.920;8.616;2023-02-15T05:35:13;101841.16;;;4.68;50.81
35716;BME280;21840;44.920;8.616;2023-02-15T05:37:39;101832.38;;;4.49;51.25
35716;BME280;21840;44.920;8.616;2023-02-15T05:40:05;101833.66;;;4.61;51.05
35716;BME280;21840;44.920;8.616;2023-02-15T05:42:31;101843.16;;;4.62;50.98
35716;BME280;21840;44.920;8.616;2023-02-15T05:44:56;101836.53;;;4.54;51.60
35716;BME280;21840;44.920;8.616;2023-02-15T05:47:21;101835.41;;;5.04;50.51
35716;BME280;21840;44.920;8.616;2023-02-15T05:49:47;101841.31;;;4.87;49.90
35716;BME280;21840;44.920;8.616;2023-02-15T05:52:12;101839.50;;;4.89;50.27
35716;BME280;21840;44.920;8.616;2023-02-15T05:54:38;101831.84;;;4.41;51.32
35716;BME280;21840;44.920;8.616;2023-02-15T05:57:03;101843.72;;;4.48;51.49
35716;BME280;21840;44.920;8.616;2023-02-15T05:59:29;101839.34;;;4.48;51.20
35716;BME280;21840;44.920;8.616;2023-02-15T06:01:54;101844.91;;;4.61;51.06
35716;BME280;21840;44.920;8.616;2023-02-15T06:04:20;101850.97;;;4.40;51.40
35716;BME280;21840;44.920;8.616;2023-02-15T06:06:45;101852.91;;;4.35;51.16
35716;BME280;21840;44.920;8.616;2023-02-15T06:09:13;101859.44;;;4.45;51.17
35716;BME280;21840;44.920;8.616;2023-02-15T06:11:38;101860.66;;;4.80;50.75
35716;BME280;21840;44.920;8.616;2023-02-15T06:14:04;101854.06;;;4.49;50.69
35716;BME280;21840;44.920;8.616;2023-02-15T06:16:30;101862.13;;;4.20;51.96
35716;BME280;21840;44.920;8.616;2023-02-15T06:18:55;101861.25;;;4.19;51.77
35716;BME280;21840;44.920;8.616;2023-02-15T06:21:21;101860.66;;;4.13;52.15
35716;BME280;21840;44.920;8.616;2023-02-15T06:23:46;101862.56;;;4.07;51.90
35716;BME280;21840;44.920;8.616;2023-02-15T06:26:12;101855.66;;;4.30;51.07
35716;BME280;21840;44.920;8.616;2023-02-15T06:28:37;101874.25;;;4.43;51.42
35716;BME280;21840;44.920;8.616;2023-02-15T06:31:03;101871.34;;;4.50;50.35
35716;BME280;21840;44.920;8.616;2023-02-15T06:33:28;101876.97;;;4.40;50.96
35716;BME280;21840;44.920;8.616;2023-02-15T06:35:56;101875.31;;;4.14;51.31
35716;BME280;21840;44.920;8.616;2023-02-15T06:38:22;101880.06;;;4.71;50.33
35716;BME280;21840;44.920;8.616;2023-02-15T06:40:47;101880.00;;;4.51;50.30
35716;BME280;21840;44.920;8.616;2023-02-15T06:43:13;101880.50;;;4.61;50.51
35716;BME280;21840;44.920;8.616;2023-02-15T06:45:38;101892.50;;;4.65;50.44
35716;BME280;21840;44.920;8.616;2023-02-15T06:48:04;101884.31;;;4.74;49.92
35716;BME280;21840;44.920;8.616;2023-02-15T06:50:32;101879.41;;;4.21;51.07
35716;BME280;21840;44.920;8.616;2023-02-15T06:52:58;101884.75;;;4.63;50.61
35716;BME280;21840;44.920;8.616;2023-02-15T06:55:24;101891.75;;;4.61;50.54
35716;BME280;21840;44.920;8.616;2023-02-15T06:57:50;101889.06;;;4.41;50.59
35716;BME280;21840;44.920;8.616;2023-02-15T07:00:15;101885.69;;;4.84;49.37
35716;BME280;21840;44.920;8.616;2023-02-15T07:02:42;101892.50;;;4.65;50.10
35716;BME280;21840;44.920;8.616;2023-02-15T07:05:08;101894.78;;;5.16;49.20
35716;BME280;21840;44.920;8.616;2023-02-15T07:07:33;101899.00;;;5.19;48.92
35716;BME280;21840;44.920;8.616;2023-02-15T07:09:59;101890.66;;;5.11;49.14
35716;BME280;21840;44.920;8.616;2023-02-15T07:12:24;101888.06;;;5.11;48.76
35716;BME280;21840;44.920;8.616;2023-02-15T07:15:12;101886.34;;;4.89;49.33
35716;BME280;21840;44.920;8.616;2023-02-15T07:17:38;101896.13;;;5.05;48.94
35716;BME280;21840;44.920;8.616;2023-02-15T07:20:05;101897.63;;;5.10;48.50
35716;BME280;21840;44.920;8.616;2023-02-15T07:22:33;101893.03;;;5.17;48.62
35716;BME280;21840;44.920;8.616;2023-02-15T07:25:01;101899.06;;;5.60;47.50
35716;BME280;21840;44.920;8.616;2023-02-15T07:27:27;101894.75;;;5.59;47.74
35716;BME280;21840;44.920;8.616;2023-02-15T07:29:52;101895.47;;;5.42;48.45
35716;BME280;21840;44.920;8.616;2023-02-15T07:32:18;101897.03;;;5.46;48.18
35716;BME280;21840;44.920;8.616;2023-02-15T07:34:43;101900.50;;;5.47;47.60
35716;BME280;21840;44.920;8.616;2023-02-15T07:37:09;101898.56;;;5.52;47.77
35716;BME280;21840;44.920;8.616;2023-02-15T07:39:34;101893.72;;;6.04;46.96
35716;BME280;21840;44.920;8.616;2023-02-15T07:42:00;101899.69;;;6.26;46.13
35716;BME280;21840;44.920;8.616;2023-02-15T07:44:29;101893.91;;;5.79;47.33
35716;BME280;21840;44.920;8.616;2023-02-15T07:46:55;101892.53;;;6.11;47.16
35716;BME280;21840;44.920;8.616;2023-02-15T07:49:20;101885.84;;;6.24;46.35
35716;BME280;21840;44.920;8.616;2023-02-15T07:51:45;101894.22;;;6.12;46.03
35716;BME280;21840;44.920;8.616;2023-02-15T07:54:11;101886.44;;;6.50;45.91
35716;BME280;21840;44.920;8.616;2023-02-15T07:56:36;101887.09;;;5.97;46.65
35716;BME280;21840;44.920;8.616;2023-02-15T07:59:02;101883.59;;;6.36;46.44
35716;BME280;21840;44.920;8.616;2023-02-15T08:01:35;101884.03;;;6.45;46.95
35716;BME280;21840;44.920;8.616;2023-02-15T08:04:02;101881.47;;;6.63;45.64
35716;BME280;21840;44.920;8.616;2023-02-15T08:06:30;101885.59;;;6.50;45.71
35716;BME280;21840;44.920;8.616;2023-02-15T08:08:56;101878.03;;;6.62;46.03
35716;BME280;21840;44.920;8.616;2023-02-15T08:11:24;101880.63;;;6.62;45.87
35716;BME280;21840;44.920;8.616;2023-02-15T08:16:44;101884.88;;;6.65;46.21
35716;BME280;21840;44.920;8.616;2023-02-15T08:21:43;101878.91;;;6.80;46.83
35716;BME280;21840;44.920;8.616;2023-02-15T08:24:10;101876.34;;;6.98;46.38
35716;BME280;21840;44.920;8.616;2023-02-15T08:26:39;101874.41;;;7.01;46.32
35716;BME280;21840;44.920;8.616;2023-02-15T08:29:05;101871.94;;;7.34;45.36
35716;BME280;21840;44.920;8.616;2023-02-15T08:31:32;101868.59;;;7.48;45.61
35716;BME280;21840;44.920;8.616;2023-02-15T08:33:58;101872.91;;;7.67;45.44
35716;BME280;21840;44.920;8.616;2023-02-15T08:36:26;101872.28;;;7.79;45.13
35716;BME280;21840;44.920;8.616;2023-02-15T08:38:52;101879.78;;;7.85;45.49
35716;BME280;21840;44.920;8.616;2023-02-15T08:43:48;101882.31;;;8.36;44.63
35716;BME280;21840;44.920;8.616;2023-02-15T08:46:15;101877.72;;;8.41;44.56
35716;BME280;21840;44.920;8.616;2023-02-15T08:48:41;101874.59;;;8.66;44.10
35716;BME280;21840;44.920;8.616;2023-02-15T08:51:14;101874.94;;;8.76;44.13
35716;BME280;21840;44.920;8.616;2023-02-15T08:53:41;101873.28;;;9.05;43.68
35716;BME280;21840;44.920;8.616;2023-02-15T08:56:08;101867.28;;;9.33;42.74
35716;BME280;21840;44.920;8.616;2023-02-15T08:58:34;101874.31;;;9.02;43.62
35716;BME280;21840;44.920;8.616;2023-02-15T09:00:59;101873.59;;;9.45;42.92
35716;BME280;21840;44.920;8.616;2023-02-15T09:03:27;101871.09;;;9.58;42.56
35716;BME280;21840;44.920;8.616;2023-02-15T09:05:58;101872.91;;;9.71;42.34
35716;BME280;21840;44.920;8.616;2023-02-15T09:08:24;101864.00;;;9.74;42.09
35716;BME280;21840;44.920;8.616;2023-02-15T09:10:49;101863.69;;;9.50;42.67
35716;BME280;21840;44.920;8.616;2023-02-15T09:13:15;101865.25;;;9.08;43.45
35716;BME280;21840;44.920;8.616;2023-02-15T09:15:40;101866.94;;;9.84;42.56
35716;BME280;21840;44.920;8.616;2023-02-15T09:18:06;101861.69;;;9.84;42.50
35716;BME280;21840;44.920;8.616;2023-02-15T09:20:34;101859.88;;;10.13;42.07
35716;BME280;21840;44.920;8.616;2023-02-15T09:23:00;101853.22;;;10.07;42.01
35716;BME280;21840;44.920;8.616;2023-02-15T09:25:26;101856.41;;;9.98;42.17
35716;BME280;21840;44.920;8.616;2023-02-15T09:27:52;101850.06;;;10.31;41.84
35716;BME280;21840;44.920;8.616;2023-02-15T09:30:17;101858.63;;;10.47;41.72
35716;BME280;21840;44.920;8.616;2023-02-15T09:32:43;101853.63;;;10.01;42.45
35716;BME280;21840;44.920;8.616;2023-02-15T09:35:08;101859.47;;;10.48;41.89
35716;BME280;21840;44.920;8.616;2023-02-15T09:37:33;101857.94;;;10.31;42.30
35716;BME280;21840;44.920;8.616;2023-02-15T09:39:59;101860.72;;;10.42;42.00
35716;BME280;21840;44.920;8.616;2023-02-15T09:45:42;101865.84;;;10.85;41.30
35716;BME280;21840;44.920;8.616;2023-02-15T09:48:22;101862.53;;;10.69;41.53
35716;BME280;21840;44.920;8.616;2023-02-15T09:54:04;101858.31;;;11.46;40.52
35716;BME280;21840;44.920;8.616;2023-02-15T09:56:48;101861.69;;;11.74;40.17
35716;BME280;21840;44.920;8.616;2023-02-15T10:08:28;101850.22;;;12.50;38.97
35716;BME280;21840;44.920;8.616;2023-02-15T10:11:18;101849.19;;;12.40;39.22
35716;BME280;21840;44.920;8.616;2023-02-15T10:17:19;101854.75;;;12.48;39.16
35716;BME280;21840;44.920;8.616;2023-02-15T10:22:21;101849.44;;;12.85;38.50
35716;BME280;21840;44.920;8.616;2023-02-15T10:27:26;101842.50;;;13.19;38.18
35716;BME280;21840;44.920;8.616;2023-02-15T10:32:25;101837.66;;;13.37;38.05
35716;BME280;21840;44.920;8.616;2023-02-15T10:37:35;101831.94;;;13.66;37.14
35716;BME280;21840;44.920;8.616;2023-02-15T10:40:28;101828.34;;;13.67;36.60
35716;BME280;21840;44.920;8.616;2023-02-15T10:43:08;101827.88;;;13.84;35.82
35716;BME280;21840;44.920;8.616;2023-02-15T10:48:30;101829.53;;;13.96;35.80
35716;BME280;21840;44.920;8.616;2023-02-15T10:51:00;101823.78;;;14.14;35.63
35716;BME280;21840;44.920;8.616;2023-02-15T10:59:10;101804.72;;;14.42;34.80
35716;BME280;21840;44.920;8.616;2023-02-15T11:06:57;101799.56;;;14.84;35.15
35716;BME280;21840;44.920;8.616;2023-02-15T11:09:25;101792.41;;;14.96;34.67
35716;BME280;21840;44.920;8.616;2023-02-15T11:11:56;101784.94;;;14.80;34.93
35716;BME280;21840;44.920;8.616;2023-02-15T11:14:52;101783.66;;;14.96;34.73
35716;BME280;21840;44.920;8.616;2023-02-15T11:17:24;101773.69;;;15.09;34.23
35716;BME280;21840;44.920;8.616;2023-02-15T11:22:48;101768.84;;;15.35;33.97
35716;BME280;21840;44.920;8.616;2023-02-15T11:25:19;101763.28;;;15.17;33.64
35716;BME280;21840;44.920;8.616;2023-02-15T11:27:46;101760.03;;;15.35;33.53
35716;BME280;21840;44.920;8.616;2023-02-15T11:30:19;101753.22;;;15.63;33.23
35716;BME280;21840;44.920;8.616;2023-02-15T11:32:48;101737.25;;;15.74;32.88
35716;BME280;21840;44.920;8.616;2023-02-15T11:35:32;101747.72;;;15.76;32.83
35716;BME280;21840;44.920;8.616;2023-02-15T11:38:10;101734.22;;;15.88;32.64
35716;BME280;21840;44.920;8.616;2023-02-15T11:40:49;101730.91;;;16.06;32.42
35716;BME280;21840;44.920;8.616;2023-02-15T11:43:21;101722.72;;;16.18;32.28
35716;BME280;21840;44.920;8.616;2023-02-15T11:45:48;101722.44;;;16.22;32.12
35716;BME280;21840;44.920;8.616;2023-02-15T11:48:15;101715.47;;;16.30;31.92
35716;BME280;21840;44.920;8.616;2023-02-15T11:50:44;101725.78;;;16.24;32.21
35716;BME280;21840;44.920;8.616;2023-02-15T11:53:13;101714.06;;;16.26;32.51
35716;BME280;21840;44.920;8.616;2023-02-15T11:55:42;101713.50;;;16.42;32.32
35716;BME280;21840;44.920;8.616;2023-02-15T11:58:28;101702.06;;;16.51;32.22
35716;BME280;21840;44.920;8.616;2023-02-15T12:01:31;101706.13;;;16.36;31.98
35716;BME280;21840;44.920;8.616;2023-02-15T12:04:06;101704.00;;;16.59;32.04
35716;BME280;21840;44.920;8.616;2023-02-15T12:06:46;101701.88;;;16.72;31.85
35716;BME280;21840;44.920;8.616;2023-02-15T12:11:42;101688.47;;;16.93;31.94
35716;BME280;21840;44.920;8.616;2023-02-15T12:14:10;101681.06;;;16.97;32.06
35716;BME280;21840;44.920;8.616;2023-02-15T12:16:42;101677.56;;;16.96;32.02
35716;BME280;21840;44.920;8.616;2023-02-15T12:21:51;101672.19;;;17.16;31.50
35716;BME280;21840;44.920;8.616;2023-02-15T12:24:21;101672.47;;;17.22;31.25
35716;BME280;21840;44.920;8.616;2023-02-15T12:27:04;101664.03;;;17.27;31.45
35716;BME280;21840;44.920;8.616;2023-02-15T12:29:39;101655.75;;;17.40;31.12
35716;BME280;21840;44.920;8.616;2023-02-15T12:32:11;101654.03;;;17.49;30.85
35716;BME280;21840;44.920;8.616;2023-02-15T12:34:41;101651.34;;;17.49;30.79
35716;BME280;21840;44.920;8.616;2023-02-15T12:37:14;101646.50;;;17.44;30.66
35716;BME280;21840;44.920;8.616;2023-02-15T12:39:51;101645.00;;;17.59;30.50
35716;BME280;21840;44.920;8.616;2023-02-15T12:42:17;101637.41;;;17.64;30.49
35716;BME280;21840;44.920;8.616;2023-02-15T12:44:56;101637.34;;;17.74;30.43
35716;BME280;21840;44.920;8.616;2023-02-15T12:47:22;101630.66;;;17.80;30.15
35716;BME280;21840;44.920;8.616;2023-02-15T12:50:22;101627.00;;;17.81;30.20
35716;BME280;21840;44.920;8.616;2023-02-15T12:53:02;101623.78;;;17.77;30.02
35716;BME280;21840;44.920;8.616;2023-02-15T12:55:31;101624.78;;;17.94;29.96
35716;BME280;21840;44.920;8.616;2023-02-15T13:00:32;101611.78;;;18.27;29.31
35716;BME280;21840;44.920;8.616;2023-02-15T13:02:58;101617.31;;;18.33;29.42
35716;BME280;21840;44.920;8.616;2023-02-15T13:05:30;101615.50;;;18.16;29.55
35716;BME280;21840;44.920;8.616;2023-02-15T13:08:16;101598.75;;;18.16;29.64
35716;BME280;21840;44.920;8.616;2023-02-15T13:13:24;101587.84;;;18.27;29.31
35716;BME280;21840;44.920;8.616;2023-02-15T13:15:54;101584.03;;;18.29;29.54
35716;BME280;21840;44.920;8.616;2023-02-15T13:18:34;101580.63;;;18.37;29.35
35716;BME280;21840;44.920;8.616;2023-02-15T13:21:09;101572.69;;;18.45;29.21
35716;BME280;21840;44.920;8.616;2023-02-15T13:23:37;101575.19;;;18.47;29.14
35716;BME280;21840;44.920;8.616;2023-02-15T13:26:11;101570.00;;;18.37;29.28
35716;BME280;21840;44.920;8.616;2023-02-15T13:28:44;101573.63;;;18.36;28.85
35716;BME280;21840;44.920;8.616;2023-02-15T13:31:14;101567.25;;;18.55;28.83
35716;BME280;21840;44.920;8.616;2023-02-15T13:33:43;101568.59;;;18.59;28.60
35716;BME280;21840;44.920;8.616;2023-02-15T13:36:34;101563.59;;;18.56;28.18
35716;BME280;21840;44.920;8.616;2023-02-15T13:39:34;101559.00;;;18.66;28.16
35716;BME280;21840;44.920;8.616;2023-02-15T13:47:50;101545.28;;;18.79;27.56
35716;BME280;21840;44.920;8.616;2023-02-15T13:55:44;101537.66;;;18.84;27.28
35716;BME280;21840;44.920;8.616;2023-02-15T14:09:24;101532.84;;;18.80;26.65
35716;BME280;21840;44.920;8.616;2023-02-15T14:25:51;101507.63;;;19.00;25.94
35716;BME280;21840;44.920;8.616;2023-02-15T14:31:06;101507.09;;;18.96;26.29
35716;BME280;21840;44.920;8.616;2023-02-15T14:33:38;101509.78;;;19.05;26.53
35716;BME280;21840;44.920;8.616;2023-02-15T14:36:10;101514.78;;;19.16;26.62
35716;BME280;21840;44.920;8.616;2023-02-15T14:38:50;101509.31;;;19.17;26.73
35716;BME280;21840;44.920;8.616;2023-02-15T14:41:30;101501.63;;;19.06;26.52
35716;BME280;21840;44.920;8.616;2023-02-15T14:44:10;101501.47;;;19.08;26.67
35716;BME280;21840;44.920;8.616;2023-02-15T14:49:21;101495.34;;;19.15;26.12
35716;BME280;21840;44.920;8.616;2023-02-15T15:02:18;101484.53;;;19.42;26.01
35716;BME280;21840;44.920;8.616;2023-02-15T15:05:06;101490.38;;;19.37;26.01
35716;BME280;21840;44.920;8.616;2023-02-15T15:07:45;101493.69;;;19.39;25.64
35716;BME280;21840;44.920;8.616;2023-02-15T15:12:47;101487.38;;;19.48;26.62
35716;BME280;21840;44.920;8.616;2023-02-15T15:15:32;101487.38;;;19.48;27.14
35716;BME280;21840;44.920;8.616;2023-02-15T15:18:05;101492.72;;;19.48;27.21
35716;BME280;21840;44.920;8.616;2023-02-15T15:20:50;101479.88;;;19.52;27.49
35716;BME280;21840;44.920;8.616;2023-02-15T15:25:55;101485.22;;;19.52;28.17
35716;BME280;21840;44.920;8.616;2023-02-15T15:31:43;101472.91;;;19.51;27.49
35716;BME280;21840;44.920;8.616;2023-02-15T15:35:05;101473.38;;;19.54;27.45
35716;BME280;21840;44.920;8.616;2023-02-15T15:45:56;101476.09;;;19.71;28.10
35716;BME280;21840;44.920;8.616;2023-02-15T15:48:33;101475.25;;;19.70;27.83
35716;BME280;21840;44.920;8.616;2023-02-15T15:51:11;101473.41;;;19.71;27.72
35716;BME280;21840;44.920;8.616;2023-02-15T15:53:42;101475.72;;;19.66;27.58
35716;BME280;21840;44.920;8.616;2023-02-15T15:56:29;101475.06;;;19.64;27.68
35716;BME280;21840;44.920;8.616;2023-02-15T15:59:07;101477.91;;;19.62;27.60
35716;BME280;21840;44.920;8.616;2023-02-15T16:01:44;101479.88;;;19.52;27.55
35716;BME280;21840;44.920;8.616;2023-02-15T16:04:31;101473.06;;;19.49;27.53